createdAt,value
2022-12-05T00:01:36.348Z,101153.97
2022-12-05T00:04:03.104Z,101162.03
2022-12-05T00:06:29.534Z,101153.97
2022-12-05T00:08:55.950Z,101160.34
2022-12-05T00:11:22.410Z,101149.03
2022-12-05T00:13:48.721Z,101140.97
2022-12-05T00:16:15.109Z,101141.19
2022-12-05T00:18:41.598Z,101145.13
2022-12-05T00:21:07.993Z,101152.31
2022-12-05T00:23:34.335Z,101141.81
2022-12-05T00:26:00.772Z,101137.06
2022-12-05T00:28:27.382Z,101140.56
2022-12-05T00:30:53.701Z,101137.06
2022-12-05T00:33:20.003Z,101142.63
2022-12-05T00:35:46.315Z,101139.13
2022-12-05T00:38:12.696Z,101139.97
2022-12-05T00:40:39.065Z,101143.88
2022-12-05T00:43:05.370Z,101143.88
2022-12-05T00:45:31.902Z,101140.38
2022-12-05T00:47:58.395Z,101147.81
2022-12-05T00:50:24.697Z,101149.06
2022-12-05T00:52:51.055Z,101145.34
2022-12-05T00:55:17.378Z,101148.00
2022-12-05T00:57:43.766Z,101161.63
2022-12-05T01:00:10.123Z,101157.31
2022-12-05T01:02:36.840Z,101160.81
2022-12-05T01:05:03.160Z,101168.88
2022-12-05T01:07:29.571Z,101173.19
2022-12-05T01:09:56.138Z,101178.75
2022-12-05T01:12:22.716Z,101179.78
2022-12-05T01:14:49.107Z,101180.00
2022-12-05T01:17:15.418Z,101180.59
2022-12-05T01:19:42.062Z,101177.31
2022-12-05T01:22:08.516Z,101180.19
2022-12-05T01:24:34.962Z,101178.34
2022-12-05T01:27:01.323Z,101176.28
2022-12-05T01:29:27.580Z,101183.50
2022-12-05T01:31:53.957Z,101173.19
2022-12-05T01:34:20.338Z,101176.88
2022-12-05T01:36:46.651Z,101168.25
2022-12-05T01:39:13.035Z,101171.13
2022-12-05T01:41:39.554Z,101173.00
2022-12-05T01:44:05.969Z,101164.31
2022-12-05T01:46:32.415Z,101164.97
2022-12-05T01:48:58.782Z,101170.72
2022-12-05T01:51:25.088Z,101165.38
2022-12-05T01:53:51.522Z,101165.56
2022-12-05T01:56:17.924Z,101163.91
2022-12-05T01:58:44.258Z,101163.91
2022-12-05T02:01:10.596Z,101162.28
2022-12-05T02:03:37.122Z,101168.84
2022-12-05T02:06:03.493Z,101165.38
2022-12-05T02:08:30.256Z,101169.06
2022-12-05T02:10:58.161Z,101161.66
2022-12-05T02:13:27.001Z,101159.13
2022-12-05T02:15:56.993Z,101155.84
2022-12-05T02:18:23.823Z,101157.91
2022-12-05T02:20:53.192Z,101158.09
2022-12-05T02:23:19.540Z,101151.50
2022-12-05T02:25:45.922Z,101154.41
2022-12-05T02:28:12.307Z,101151.94
2022-12-05T02:30:38.620Z,101150.28
2022-12-05T02:33:04.938Z,101153.97
2022-12-05T02:35:31.419Z,101149.66
2022-12-05T02:37:57.883Z,101151.28
2022-12-05T02:40:24.210Z,101148.81
2022-12-05T02:42:50.535Z,101144.69
2022-12-05T02:45:16.853Z,101143.06
2022-12-05T02:47:43.247Z,101142.84
2022-12-05T02:50:09.535Z,101143.06
2022-12-05T02:52:35.819Z,101147.59
2022-12-05T02:55:02.108Z,101136.84
2022-12-05T02:57:28.504Z,101144.91
2022-12-05T02:59:54.877Z,101139.78
2022-12-05T03:02:21.316Z,101139.78
2022-12-05T03:04:47.616Z,101140.59
2022-12-05T03:07:13.907Z,101140.59
2022-12-05T03:09:40.255Z,101130.28
2022-12-05T03:12:06.611Z,101132.13
2022-12-05T03:14:33.231Z,101134.81
2022-12-05T03:16:59.708Z,101128.63
2022-12-05T03:19:25.989Z,101136.88
2022-12-05T03:21:52.309Z,101135.03
2022-12-05T03:24:18.575Z,101130.69
2022-12-05T03:26:44.911Z,101131.94
2022-12-05T03:29:11.303Z,101134.41
2022-12-05T03:31:37.592Z,101131.09
2022-12-05T03:34:03.900Z,101136.06
2022-12-05T03:36:30.255Z,101136.47
2022-12-05T03:38:56.618Z,101130.06
2022-12-05T03:41:22.919Z,101136.47
2022-12-05T03:43:49.287Z,101130.28
2022-12-05T03:46:15.705Z,101131.09
2022-12-05T03:48:42.133Z,101137.69
2022-12-05T03:51:08.446Z,101138.09
2022-12-05T03:53:34.836Z,101131.50
2022-12-05T03:56:01.165Z,101130.69
2022-12-05T03:58:27.430Z,101135.22
2022-12-05T04:00:53.772Z,101143.47
2022-12-05T04:03:20.161Z,101141.63
2022-12-05T04:05:46.514Z,101136.47
2022-12-05T04:08:13.052Z,101136.47
2022-12-05T04:10:39.436Z,101136.66
2022-12-05T04:13:05.784Z,101142.84
2022-12-05T04:15:32.183Z,101136.66
2022-12-05T04:17:58.623Z,101146.56
2022-12-05T04:20:24.880Z,101142.22
2022-12-05T04:22:51.235Z,101144.28
2022-12-05T04:25:17.503Z,101148.00
2022-12-05T04:27:43.933Z,101149.00
2022-12-05T04:30:10.274Z,101155.22
2022-12-05T04:32:36.583Z,101149.00
2022-12-05T04:35:02.864Z,101150.06
2022-12-05T04:37:29.173Z,101150.88
2022-12-05T04:39:55.768Z,101148.00
2022-12-05T04:42:22.659Z,101144.91
2022-12-05T04:44:48.976Z,101150.44
2022-12-05T04:47:15.666Z,101150.44
2022-12-05T04:49:42.018Z,101147.56
2022-12-05T04:52:08.374Z,101150.25
2022-12-05T04:54:34.697Z,101150.44
2022-12-05T04:57:01.410Z,101153.38
2022-12-05T04:59:27.966Z,101155.81
2022-12-05T05:01:54.322Z,101164.06
2022-12-05T05:04:20.733Z,101160.56
2022-12-05T05:06:47.096Z,101148.00
2022-12-05T05:09:13.440Z,101151.28
2022-12-05T05:11:39.860Z,101155.00
2022-12-05T05:14:06.251Z,101151.28
2022-12-05T05:16:32.624Z,101149.84
2022-12-05T05:18:59.059Z,101156.84
2022-12-05T05:21:25.404Z,101154.38
2022-12-05T05:23:51.784Z,101156.25
2022-12-05T05:26:18.190Z,101151.28
2022-12-05T05:28:44.475Z,101150.88
2022-12-05T05:31:10.891Z,101150.03
2022-12-05T05:33:37.315Z,101150.88
2022-12-05T05:36:03.756Z,101156.44
2022-12-05T05:38:30.135Z,101154.59
2022-12-05T05:40:56.438Z,101152.13
2022-12-05T05:43:22.750Z,101149.63
2022-12-05T05:45:49.034Z,101156.44
2022-12-05T05:48:15.357Z,101166.31
2022-12-05T05:50:41.646Z,101164.88
2022-12-05T05:53:07.995Z,101167.56
2022-12-05T05:55:34.344Z,101164.06
2022-12-05T05:58:00.790Z,101167.75
2022-12-05T06:00:27.025Z,101166.94
2022-12-05T06:02:53.571Z,101167.97
2022-12-05T06:05:19.971Z,101164.47
2022-12-05T06:07:46.614Z,101170.44
2022-12-05T06:10:12.911Z,101158.06
2022-12-05T06:12:39.173Z,101166.94
2022-12-05T06:15:05.636Z,101163.63
2022-12-05T06:17:31.937Z,101162.00
2022-12-05T06:19:58.496Z,101167.34
2022-12-05T06:22:25.040Z,101163.63
2022-12-05T06:24:51.411Z,101165.50
2022-12-05T06:27:17.696Z,101163.81
2022-12-05T06:29:43.962Z,101161.38
2022-12-05T06:32:10.309Z,101167.94
2022-12-05T06:34:36.667Z,101167.75
2022-12-05T06:37:03.032Z,101163.41
2022-12-05T06:39:29.487Z,101174.13
2022-12-05T06:41:55.872Z,101175.16
2022-12-05T06:44:22.265Z,101171.44
2022-12-05T06:46:48.578Z,101183.19
2022-12-05T06:49:14.897Z,101183.19
2022-12-05T06:51:41.360Z,101183.19
2022-12-05T06:54:07.681Z,101185.03
2022-12-05T06:56:34.094Z,101190.59
2022-12-05T06:59:00.339Z,101187.72
2022-12-05T07:01:26.835Z,101182.56
2022-12-05T07:03:53.181Z,101180.13
2022-12-05T07:06:19.468Z,101190.59
2022-12-05T07:08:45.832Z,101190.59
2022-12-05T07:11:12.132Z,101191.25
2022-12-05T07:13:38.481Z,101194.31
2022-12-05T07:16:05.066Z,101198.22
2022-12-05T07:18:31.879Z,101193.69
2022-12-05T07:21:14.012Z,101195.53
2022-12-05T07:23:40.778Z,101195.53
2022-12-05T07:26:07.398Z,101205.22
2022-12-05T07:28:33.871Z,101206.91
2022-12-05T07:31:00.205Z,101206.66
2022-12-05T07:33:26.591Z,101203.97
2022-12-05T07:35:52.892Z,101200.50
2022-12-05T07:38:19.496Z,101208.53
2022-12-05T07:40:45.921Z,101205.84
2022-12-05T07:43:12.318Z,101209.53
2022-12-05T07:45:38.724Z,101217.38
2022-12-05T07:48:05.103Z,101218.19
2022-12-05T07:50:31.638Z,101224.78
2022-12-05T07:52:57.954Z,101215.72
2022-12-05T07:55:24.428Z,101223.94
2022-12-05T07:57:50.711Z,101211.41
2022-12-05T08:00:17.029Z,101222.91
2022-12-05T08:02:43.503Z,101215.91
2022-12-05T08:05:09.831Z,101216.13
2022-12-05T08:07:36.154Z,101216.34
2022-12-05T08:10:02.475Z,101226.22
2022-12-05T08:12:28.765Z,101222.69
2022-12-05T08:14:55.018Z,101221.47
2022-12-05T08:17:21.399Z,101223.34
2022-12-05T08:19:47.734Z,101223.53
2022-12-05T08:22:14.030Z,101219.22
2022-12-05T08:24:40.361Z,101230.13
2022-12-05T08:27:06.624Z,101229.28
2022-12-05T08:29:32.912Z,101230.13
2022-12-05T08:31:59.268Z,101222.09
2022-12-05T08:34:25.714Z,101222.88
2022-12-05T08:36:52.094Z,101222.69
2022-12-05T08:39:18.545Z,101227.84
2022-12-05T08:41:44.965Z,101222.88
2022-12-05T08:44:11.453Z,101223.94
2022-12-05T08:46:37.807Z,101222.09
2022-12-05T08:49:04.191Z,101223.94
2022-12-05T08:51:30.579Z,101221.88
2022-12-05T08:53:56.883Z,101222.66
2022-12-05T08:56:27.244Z,101220.19
2022-12-05T08:59:01.421Z,101229.25
2022-12-05T09:01:31.196Z,101225.97
2022-12-05T09:03:57.605Z,101227.81
2022-12-05T09:06:23.987Z,101229.03
2022-12-05T09:08:50.445Z,101223.88
2022-12-05T09:11:16.719Z,101222.84
2022-12-05T09:13:43.081Z,101227.59
2022-12-05T09:16:09.440Z,101226.75
2022-12-05T09:18:35.794Z,101230.25
2022-12-05T09:21:02.120Z,101230.47
2022-12-05T09:23:28.412Z,101230.66
2022-12-05T09:25:54.747Z,101227.97
2022-12-05T09:28:21.121Z,101230.84
2022-12-05T09:30:47.583Z,101224.47
2022-12-05T09:33:13.918Z,101239.28
2022-12-05T09:35:40.329Z,101237.22
2022-12-05T09:38:06.691Z,101223.00
2022-12-05T09:40:33.020Z,101223.22
2022-12-05T09:42:59.363Z,101221.81
2022-12-05T09:45:25.710Z,101218.28
2022-12-05T09:47:51.984Z,101221.41
2022-12-05T09:50:19.052Z,101209.47
2022-12-05T09:52:45.474Z,101220.81
2022-12-05T09:55:11.735Z,101216.91
2022-12-05T09:57:38.133Z,101215.47
2022-12-05T10:00:04.787Z,101210.72
2022-12-05T10:02:31.227Z,101214.66
2022-12-05T10:05:00.700Z,101213.44
2022-12-05T10:07:27.637Z,101217.38
2022-12-05T10:09:53.960Z,101208.94
2022-12-05T10:12:20.286Z,101215.94
2022-12-05T10:14:46.645Z,101212.69
2022-12-05T10:17:12.970Z,101204.03
2022-12-05T10:19:39.510Z,101204.03
2022-12-05T10:22:05.872Z,101202.41
2022-12-05T10:24:32.178Z,101212.31
2022-12-05T10:26:58.462Z,101210.47
2022-12-05T10:29:24.755Z,101201.81
2022-12-05T10:31:51.085Z,101194.63
2022-12-05T10:34:17.437Z,101196.66
2022-12-05T10:36:43.949Z,101194.84
2022-12-05T10:39:11.648Z,101198.34
2022-12-05T10:41:38.101Z,101196.28
2022-12-05T10:44:04.580Z,101198.13
2022-12-05T10:46:30.912Z,101194.00
2022-12-05T10:48:57.564Z,101194.22
2022-12-05T10:51:23.811Z,101185.91
2022-12-05T10:53:50.217Z,101188.81
2022-12-05T10:56:31.089Z,101196.19
2022-12-05T10:58:58.543Z,101192.69
2022-12-05T11:01:26.472Z,101192.44
2022-12-05T11:03:53.427Z,101190.34
2022-12-05T11:06:19.753Z,101198.34
2022-12-05T11:11:32.508Z,101196.69
2022-12-05T11:13:58.860Z,101196.06
2022-12-05T11:16:25.344Z,101196.63
2022-12-05T11:18:51.853Z,101190.63
2022-12-05T11:21:18.280Z,101193.28
2022-12-05T11:23:44.596Z,101191.81
2022-12-05T11:26:11.066Z,101197.56
2022-12-05T11:28:37.460Z,101199.59
2022-12-05T11:31:03.834Z,101202.47
2022-12-05T11:36:20.773Z,101218.34
2022-12-05T11:38:47.158Z,101207.34
2022-12-05T11:41:13.497Z,101213.16
2022-12-05T11:43:39.959Z,101205.25
2022-12-05T11:46:06.635Z,101204.38
2022-12-05T11:48:33.249Z,101202.69
2022-12-05T11:50:59.754Z,101210.31
2022-12-05T11:53:26.268Z,101203.47
2022-12-05T11:55:52.723Z,101205.06
2022-12-05T11:58:19.091Z,101201.50
2022-12-05T12:00:45.437Z,101196.91
2022-12-05T12:03:12.905Z,101197.06
2022-12-05T12:05:39.552Z,101189.97
2022-12-05T12:08:05.842Z,101190.34
2022-12-05T12:10:32.194Z,101189.13
2022-12-05T12:12:58.655Z,101182.22
2022-12-05T12:15:24.887Z,101189.03
2022-12-05T12:17:51.296Z,101191.28
2022-12-05T12:20:17.696Z,101184.41
2022-12-05T12:22:44.007Z,101176.31
2022-12-05T12:25:10.567Z,101175.91
2022-12-05T12:27:37.090Z,101171.72
2022-12-05T12:30:03.362Z,101172.06
2022-12-05T12:32:29.902Z,101163.56
2022-12-05T12:34:56.564Z,101160.25
2022-12-05T12:37:23.394Z,101163.13
2022-12-05T12:39:49.719Z,101167.25
2022-12-05T12:42:16.053Z,101160.59
2022-12-05T12:44:42.495Z,101164.31
2022-12-05T12:47:08.862Z,101153.78
2022-12-05T12:49:35.320Z,101152.72
2022-12-05T12:52:01.669Z,101152.09
2022-12-05T12:54:47.328Z,101150.75
2022-12-05T12:57:19.303Z,101155.56
2022-12-05T12:59:48.451Z,101152.25
2022-12-05T13:02:15.048Z,101147.13
2022-12-05T13:04:41.812Z,101150.19
2022-12-05T13:07:08.280Z,101147.34
2022-12-05T13:09:34.681Z,101151.88
2022-12-05T13:12:01.036Z,101153.31
2022-12-05T13:14:27.329Z,101153.53
2022-12-05T13:16:53.853Z,101154.34
2022-12-05T13:19:20.424Z,101149.56
2022-12-05T13:21:47.086Z,101154.94
2022-12-05T13:24:13.642Z,101148.16
2022-12-05T13:26:39.898Z,101144.19
2022-12-05T13:29:06.289Z,101152.50
2022-12-05T13:31:32.608Z,101148.75
2022-12-05T13:33:58.994Z,101150.63
2022-12-05T13:36:25.274Z,101144.66
2022-12-05T13:38:51.591Z,101148.75
2022-12-05T13:41:17.901Z,101140.00
2022-12-05T13:43:48.665Z,101138.56
2022-12-05T13:46:19.800Z,101158.69
2022-12-05T13:48:46.475Z,101159.75
2022-12-05T13:51:13.108Z,101146.88
2022-12-05T13:53:39.485Z,101157.41
2022-12-05T13:56:05.909Z,101159.69
2022-12-05T13:58:32.253Z,101160.03
2022-12-05T14:00:58.853Z,101152.44
2022-12-05T14:03:25.267Z,101159.81
2022-12-05T14:05:51.739Z,101163.78
2022-12-05T14:08:18.100Z,101161.47
2022-12-05T14:10:44.396Z,101155.28
2022-12-05T14:13:10.990Z,101157.06
2022-12-05T14:15:37.555Z,101156.84
2022-12-05T14:18:04.040Z,101147.91
2022-12-05T14:20:30.404Z,101151.81
2022-12-05T14:22:56.746Z,101149.50
2022-12-05T14:25:23.097Z,101149.72
2022-12-05T14:27:49.569Z,101153.00
2022-12-05T14:30:15.907Z,101145.53
2022-12-05T14:32:42.410Z,101151.06
2022-12-05T14:35:08.664Z,101144.84
2022-12-05T14:37:35.077Z,101143.44
2022-12-05T14:40:01.584Z,101144.53
2022-12-05T14:42:28.136Z,101148.22
2022-12-05T14:44:54.411Z,101153.59
2022-12-05T14:47:21.005Z,101151.13
2022-12-05T14:49:48.663Z,101158.16
2022-12-05T14:52:15.113Z,101156.44
2022-12-05T14:54:41.827Z,101159.59
2022-12-05T14:57:08.147Z,101157.34
2022-12-05T14:59:34.413Z,101156.59
2022-12-05T15:02:00.911Z,101150.84
2022-12-05T15:04:27.307Z,101150.78
2022-12-05T15:06:53.624Z,101151.22
2022-12-05T15:09:36.406Z,101153.31
2022-12-05T15:12:09.383Z,101152.84
2022-12-05T15:14:36.178Z,101155.78
2022-12-05T15:17:02.485Z,101160.34
2022-12-05T15:19:28.800Z,101158.72
2022-12-05T15:21:55.056Z,101152.03
2022-12-05T15:24:21.447Z,101152.03
2022-12-05T15:26:48.751Z,101156.16
2022-12-05T15:29:15.538Z,101156.97
2022-12-05T15:31:41.902Z,101157.50
2022-12-05T15:34:08.391Z,101155.31
2022-12-05T15:36:34.718Z,101154.66
2022-12-05T15:39:01.081Z,101159.59
2022-12-05T15:41:27.392Z,101161.50
2022-12-05T15:43:53.770Z,101165.25
2022-12-05T15:46:20.311Z,101163.06
2022-12-05T15:48:46.793Z,101167.91
2022-12-05T15:51:13.076Z,101168.84
2022-12-05T15:53:39.460Z,101167.91
2022-12-05T15:56:05.850Z,101169.56
2022-12-05T15:58:32.341Z,101161.97
2022-12-05T16:00:59.072Z,101163.84
2022-12-05T16:03:25.363Z,101160.53
2022-12-05T16:05:51.807Z,101169.25
2022-12-05T16:08:18.320Z,101176.97
2022-12-05T16:10:44.875Z,101166.50
2022-12-05T16:13:11.188Z,101168.03
2022-12-05T16:15:37.883Z,101171.25
2022-12-05T16:18:04.403Z,101174.41
2022-12-05T16:20:31.000Z,101167.88
2022-12-05T16:22:57.337Z,101171.47
2022-12-05T16:25:23.679Z,101162.94
2022-12-05T16:27:50.032Z,101162.47
2022-12-05T16:30:16.610Z,101152.72
2022-12-05T16:32:42.971Z,101160.34
2022-12-05T16:35:09.232Z,101154.81
2022-12-05T16:37:35.484Z,101159.53
2022-12-05T16:40:02.112Z,101171.41
2022-12-05T16:42:28.707Z,101166.34
2022-12-05T16:44:55.016Z,101159.75
2022-12-05T16:47:21.551Z,101163.53
2022-12-05T16:49:47.816Z,101152.72
2022-12-05T16:52:14.199Z,101156.22
2022-12-05T16:54:40.641Z,101156.00
2022-12-05T16:57:07.109Z,101144.63
2022-12-05T16:59:33.390Z,101141.09
2022-12-05T17:01:59.804Z,101142.38
2022-12-05T17:04:26.446Z,101146.50
2022-12-05T17:06:53.015Z,101139.22
2022-12-05T17:09:19.296Z,101138.50
2022-12-05T17:11:45.745Z,101144.16
2022-12-05T17:14:12.128Z,101141.22
2022-12-05T17:16:38.445Z,101139.34
2022-12-05T17:19:04.832Z,101140.97
2022-12-05T17:21:31.334Z,101147.91
2022-12-05T17:23:57.714Z,101145.22
2022-12-05T17:26:23.948Z,101154.13
2022-12-05T17:28:50.227Z,101156.34
2022-12-05T17:31:16.795Z,101147.44
2022-12-05T17:33:43.250Z,101153.53
2022-12-05T17:36:09.791Z,101152.50
2022-12-05T17:38:36.204Z,101155.63
2022-12-05T17:41:06.996Z,101156.91
2022-12-05T17:43:33.742Z,101151.88
2022-12-05T17:46:00.310Z,101151.06
2022-12-05T17:48:26.583Z,101149.84
2022-12-05T17:50:52.892Z,101153.41
2022-12-05T17:53:19.547Z,101150.59
2022-12-05T17:55:45.957Z,101151.38
2022-12-05T17:58:12.416Z,101158.22
2022-12-05T18:00:38.963Z,101154.00
2022-12-05T18:03:05.419Z,101160.09
2022-12-05T18:05:31.887Z,101154.69
2022-12-05T18:07:58.393Z,101159.25
2022-12-05T18:10:24.751Z,101158.22
2022-12-05T18:12:51.050Z,101155.53
2022-12-05T18:15:17.631Z,101156.81
2022-12-05T18:17:44.045Z,101158.50
2022-12-05T18:20:10.498Z,101161.72
2022-12-05T18:22:36.790Z,101164.63
2022-12-05T18:25:03.152Z,101161.97
2022-12-05T18:27:29.647Z,101160.97
2022-12-05T18:29:56.104Z,101162.75
2022-12-05T18:32:22.470Z,101169.69
2022-12-05T18:34:48.803Z,101168.59
2022-12-05T18:37:15.111Z,101161.25
2022-12-05T18:39:41.518Z,101163.50
2022-12-05T18:42:14.617Z,101173.91
2022-12-05T18:44:41.579Z,101177.38
2022-12-05T18:47:08.027Z,101172.13
2022-12-05T18:49:34.352Z,101179.22
2022-12-05T18:52:00.769Z,101180.16
2022-12-05T18:54:27.094Z,101177.56
2022-12-05T18:56:53.536Z,101174.25
2022-12-05T18:59:19.974Z,101179.47
2022-12-05T19:01:46.298Z,101180.69
2022-12-05T19:04:12.919Z,101177.72
2022-12-05T19:06:39.382Z,101172.56
2022-12-05T19:09:05.729Z,101178.38
2022-12-05T19:11:32.055Z,101178.41
2022-12-05T19:13:58.402Z,101174.97
2022-12-05T19:16:24.905Z,101182.94
2022-12-05T19:18:51.229Z,101177.25
2022-12-05T19:21:17.607Z,101179.59
2022-12-05T19:23:43.956Z,101175.41
2022-12-05T19:26:10.396Z,101189.03
2022-12-05T19:28:36.738Z,101184.63
2022-12-05T19:31:03.085Z,101184.41
2022-12-05T19:33:29.377Z,101185.03
2022-12-05T19:35:55.627Z,101189.13
2022-12-05T19:38:21.911Z,101188.09
2022-12-05T19:40:48.184Z,101188.91
2022-12-05T19:43:14.475Z,101179.78
2022-12-05T19:45:40.829Z,101179.78
2022-12-05T19:48:07.166Z,101186.22
2022-12-05T19:50:33.478Z,101182.34
2022-12-05T19:52:59.802Z,101176.47
2022-12-05T19:55:26.099Z,101182.34
2022-12-05T19:57:52.364Z,101186.44
2022-12-05T20:00:18.652Z,101184.41
2022-12-05T20:02:46.003Z,101190.00
2022-12-05T20:05:12.522Z,101190.69
2022-12-05T20:07:38.891Z,101191.50
2022-12-05T20:10:05.168Z,101193.59
2022-12-05T20:12:31.686Z,101191.97
2022-12-05T20:14:57.997Z,101194.88
2022-12-05T20:17:24.292Z,101201.50
2022-12-05T20:19:50.819Z,101205.63
2022-12-05T20:22:17.284Z,101197.63
2022-12-05T20:24:43.600Z,101200.09
2022-12-05T20:27:10.090Z,101195.97
2022-12-05T20:29:36.413Z,101202.84
2022-12-05T20:32:02.741Z,101201.16
2022-12-05T20:34:29.122Z,101207.81
2022-12-05T20:36:55.365Z,101208.66
2022-12-05T20:39:21.729Z,101204.09
2022-12-05T20:41:48.156Z,101211.56
2022-12-05T20:44:14.550Z,101207.22
2022-12-05T20:46:40.895Z,101218.22
2022-12-05T20:49:07.186Z,101204.97
2022-12-05T20:51:33.782Z,101204.38
2022-12-05T20:54:00.243Z,101194.88
2022-12-05T20:56:26.647Z,101199.44
2022-12-05T20:58:53.010Z,101200.47
2022-12-05T21:01:19.354Z,101189.72
2022-12-05T21:03:45.791Z,101191.75
2022-12-05T21:06:12.085Z,101190.13
2022-12-05T21:08:38.410Z,101184.16
2022-12-05T21:11:04.708Z,101185.16
2022-12-05T21:13:31.043Z,101187.28
2022-12-05T21:15:57.398Z,101174.88
2022-12-05T21:18:23.932Z,101183.53
2022-12-05T21:20:50.305Z,101182.94
2022-12-05T21:23:16.589Z,101180.31
2022-12-05T21:25:42.884Z,101174.94
2022-12-05T21:28:09.361Z,101178.63
2022-12-05T21:30:35.618Z,101178.84
2022-12-05T21:33:01.871Z,101177.22
2022-12-05T21:35:28.299Z,101181.16
2022-12-05T21:37:54.731Z,101177.03
2022-12-05T21:40:21.201Z,101172.09
2022-12-05T21:42:47.482Z,101176.66
2022-12-05T21:45:13.720Z,101181.22
2022-12-05T21:47:40.004Z,101173.81
2022-12-05T21:50:06.466Z,101172.56
2022-12-05T21:52:32.814Z,101166.97
2022-12-05T21:54:59.052Z,101176.94
2022-12-05T21:57:25.331Z,101167.22
2022-12-05T21:59:51.653Z,101164.75
2022-12-05T22:02:17.999Z,101150.69
2022-12-05T22:04:44.428Z,101155.25
2022-12-05T22:07:10.754Z,101154.06
2022-12-05T22:09:37.054Z,101150.53
2022-12-05T22:12:03.310Z,101146.63
2022-12-05T22:14:29.569Z,101158.81
2022-12-05T22:16:55.836Z,101161.13
2022-12-05T22:19:22.158Z,101161.13
2022-12-05T22:21:48.481Z,101162.38
2022-12-05T22:24:14.782Z,101156.16
2022-12-05T22:26:41.058Z,101152.88
2022-12-05T22:29:07.440Z,101161.16
2022-12-05T22:31:33.872Z,101161.38
2022-12-05T22:34:00.412Z,101163.47
2022-12-05T22:36:26.776Z,101148.34
2022-12-05T22:38:53.066Z,101153.94
2022-12-05T22:41:19.479Z,101145.28
2022-12-05T22:43:45.756Z,101145.06
2022-12-05T22:46:12.116Z,101143.88
2022-12-05T22:48:38.456Z,101143.03
2022-12-05T22:51:04.780Z,101146.75
2022-12-05T22:53:31.103Z,101132.50
2022-12-05T22:55:57.421Z,101133.75
2022-12-05T22:58:23.768Z,101128.38
2022-12-05T23:00:50.175Z,101133.97
2022-12-05T23:03:16.663Z,101134.78
2022-12-05T23:05:43.105Z,101137.47
2022-12-05T23:08:09.586Z,101139.34
2022-12-05T23:10:35.952Z,101128.84
2022-12-05T23:13:02.231Z,101122.84
2022-12-05T23:15:28.612Z,101119.56
2022-12-05T23:17:55.263Z,101115.81
2022-12-05T23:20:21.914Z,101121.41
2022-12-05T23:22:48.256Z,101123.50
2022-12-05T23:25:14.578Z,101123.50
2022-12-05T23:27:40.881Z,101126.78
2022-12-05T23:30:07.231Z,101113.19
2022-12-05T23:32:33.530Z,101119.34
2022-12-05T23:34:59.957Z,101107.19
2022-12-05T23:37:26.371Z,101117.13
2022-12-05T23:39:52.753Z,101112.56
2022-12-05T23:42:19.130Z,101113.00
2022-12-05T23:44:45.475Z,101117.53
2022-12-05T23:47:11.834Z,101114.03
2022-12-05T23:49:38.399Z,101113.00
2022-12-05T23:52:04.692Z,101110.75
2022-12-05T23:54:31.151Z,101101.03
2022-12-05T23:56:57.477Z,101112.00
2022-12-05T23:59:23.794Z,101109.31
